Time;durP1;ratioP1;P1;durP2;ratioP2;P2;SDS_P1;SDS_P2;PMS_P1;PMS_P2;Temp;Humidity;BMP_temperature;BMP_pressure;BME280_temperature;BME280_humidity;BME280_pressure;Samples;Min_cycle;Max_cycle;Signal;HPM_P1;HPM_P2
2023/01/10 00:01:49;;;;;;;;;3.33;3.00;;;;;8.17;63.24;101424.25;5056829;28;45404;-75
2023/01/10 00:04:14;;;;;;;;;3.00;2.00;;;;;7.90;63.40;101390.03;5055524;28;45309;-72
2023/01/10 00:06:39;;;;;;;;;8.67;4.33;;;;;8.21;63.73;101431.06;5056943;28;45459;-73
2023/01/10 00:09:05;;;;;;;;;5.00;2.00;;;;;6.77;63.55;101203.38;5056351;28;49468;-73
2023/01/10 00:14:14;;;;;;;;;4.00;1.67;;;;;8.00;63.52;101400.81;5057389;28;46265;-72
2023/01/10 00:16:41;;;;;;;;;8.00;4.00;;;;;8.09;63.88;101418.69;5063039;28;45284;-73
2023/01/10 00:19:09;;;;;;;;;9.67;4.00;;;;;8.26;63.10;101451.06;5080653;27;46528;-73
2023/01/10 00:21:35;;;;;;;;;6.33;2.00;;;;;7.35;63.67;101305.84;5081227;28;45571;-72
2023/01/10 00:24:16;;;;;;;;;3.00;3.00;;;;;8.02;63.89;101428.03;5080962;27;45287;-71
2023/01/10 00:26:43;;;;;;;;;2.67;2.00;;;;;7.92;63.79;101425.19;5096639;27;45248;-73
2023/01/10 00:29:08;;;;;;;;;2.67;2.33;;;;;7.96;63.82;101425.81;5080302;27;45623;-74
2023/01/10 00:31:33;;;;;;;;;5.00;3.33;;;;;8.00;63.70;101445.81;5096271;27;45382;-72
2023/01/10 00:33:59;;;;;;;;;5.00;2.00;;;;;8.13;63.16;101474.94;5080162;28;53340;-72
2023/01/10 00:36:24;;;;;;;;;4.00;1.00;;;;;8.19;63.55;101477.97;5080304;27;45616;-72
2023/01/10 00:38:50;;;;;;;;;5.67;2.67;;;;;8.16;63.78;101485.28;5080294;27;45654;-73
2023/01/10 00:43:59;;;;;;;;;7.00;4.00;;;;;8.01;63.76;101476.66;5080698;28;45475;-72
2023/01/10 00:46:25;;;;;;;;;3.33;2.00;;;;;8.05;64.18;101486.09;5080247;27;45356;-72
2023/01/10 00:48:51;;;;;;;;;3.67;2.00;;;;;8.03;63.69;101474.75;5079735;28;45420;-71
2023/01/10 00:51:17;;;;;;;;;3.33;3.33;;;;;7.99;63.99;101512.97;5079583;28;45457;-73
2023/01/10 00:53:42;;;;;;;;;3.00;2.67;;;;;8.01;64.56;101502.28;5079956;27;45324;-71
2023/01/10 00:56:08;;;;;;;;;4.00;4.00;;;;;7.96;64.27;101515.84;5080031;27;45362;-71
2023/01/10 00:58:33;;;;;;;;;2.33;2.33;;;;;7.71;64.20;101452.34;5095409;27;47347;-72
2023/01/10 01:00:59;;;;;;;;;5.00;3.67;;;;;8.02;64.15;101502.19;5079663;27;45324;-72
2023/01/10 01:03:24;;;;;;;;;5.00;3.00;;;;;7.48;64.24;101420.41;5079532;27;45641;-71
2023/01/10 01:05:49;;;;;;;;;4.33;3.00;;;;;8.07;64.18;101507.16;5079463;28;47649;-73
2023/01/10 01:08:16;;;;;;;;;11.33;10.00;;;;;7.70;64.06;101459.44;5079249;27;45685;-70
2023/01/10 01:10:41;;;;;;;;;3.00;3.00;;;;;8.05;63.86;101512.56;5079525;28;45239;-72
2023/01/10 01:13:11;;;;;;;;;2.00;2.00;;;;;7.48;64.24;101430.16;5079457;27;45732;-72
2023/01/10 01:15:37;;;;;;;;;3.67;2.67;;;;;7.61;64.09;101439.78;5076910;27;45545;-71
2023/01/10 01:18:03;;;;;;;;;3.00;3.00;;;;;8.06;64.26;101516.91;5060142;28;48738;-72
2023/01/10 01:20:29;;;;;;;;;2.00;2.00;;;;;8.00;64.68;101527.06;5059324;28;45187;-71
2023/01/10 01:22:54;;;;;;;;;1.00;0.67;;;;;8.01;64.49;101540.22;5059012;28;45560;-72
2023/01/10 01:25:19;;;;;;;;;7.00;3.33;;;;;7.45;64.32;101431.22;5058520;28;45423;-71
2023/01/10 01:27:45;;;;;;;;;4.00;1.67;;;;;7.71;64.42;101490.25;5057757;28;45570;-74
2023/01/10 01:30:11;;;;;;;;;5.33;3.67;;;;;6.75;64.34;101327.69;5058637;28;45468;-72
2023/01/10 01:32:36;;;;;;;;;5.00;2.00;;;;;7.73;64.23;101503.38;5058806;28;45305;-72
2023/01/10 01:35:02;;;;;;;;;3.33;2.00;;;;;7.52;64.45;101469.50;5058751;28;45289;-71
2023/01/10 01:37:27;;;;;;;;;3.33;2.00;;;;;7.10;64.52;101396.63;5058082;28;45904;-71
2023/01/10 01:39:53;;;;;;;;;3.00;3.00;;;;;7.24;64.83;101454.72;5058458;28;45237;-71
2023/01/10 01:42:33;;;;;;;;;2.00;1.67;;;;;7.77;65.00;101531.31;5058714;28;45508;-72
2023/01/10 01:45:08;;;;;;;;;2.00;2.00;;;;;7.97;64.55;101553.75;5058573;28;45186;-72
2023/01/10 01:47:55;;;;;;;;;3.00;2.33;;;;;7.99;65.06;101555.34;5040132;28;45807;-72
2023/01/10 01:50:48;;;;;;;;;3.67;2.67;;;;;7.99;64.62;101551.84;5040166;28;46078;-71
2023/01/10 01:53:30;;;;;;;;;3.33;2.00;;;;;7.94;64.72;101553.03;5040331;28;45625;-73
2023/01/10 01:56:01;;;;;;;;;4.00;3.00;;;;;7.88;64.87;101534.94;5058413;28;45380;-70
2023/01/10 01:58:46;;;;;;;;;7.00;3.00;;;;;7.89;64.84;101541.06;5058122;28;46774;-71
2023/01/10 02:01:14;;;;;;;;;2.67;2.00;;;;;7.92;65.67;101548.78;5040003;28;45384;-71
2023/01/10 02:03:42;;;;;;;;;8.67;2.67;;;;;7.85;64.97;101548.38;5058166;28;45269;-72
2023/01/10 02:06:08;;;;;;;;;5.00;2.33;;;;;7.67;65.36;101533.78;5058088;28;45376;-72
2023/01/10 02:08:34;;;;;;;;;4.33;2.67;;;;;7.82;65.30;101571.59;5057861;28;46649;-72
2023/01/10 02:11:09;;;;;;;;;4.33;1.33;;;;;7.86;65.03;101562.47;5039969;28;45339;-70
2023/01/10 02:13:41;;;;;;;;;3.00;2.67;;;;;7.81;65.66;101580.47;5058349;28;45357;-70
2023/01/10 02:16:07;;;;;;;;;4.00;2.33;;;;;7.83;65.32;101605.03;5057861;28;45415;-71
2023/01/10 02:18:34;;;;;;;;;4.00;4.00;;;;;7.04;65.31;101446.44;5058248;28;45595;-71
2023/01/10 02:21:06;;;;;;;;;6.00;4.00;;;;;7.84;65.54;101580.25;5058501;28;45267;-72
2023/01/10 02:24:09;;;;;;;;;10.33;4.00;;;;;7.84;65.47;101585.56;5058981;28;45358;-70
2023/01/10 02:26:57;;;;;;;;;2.67;1.33;;;;;7.83;65.42;101589.16;4979443;28;45556;-71
2023/01/10 02:29:25;;;;;;;;;7.00;2.33;;;;;7.83;65.41;101589.16;4979030;28;46698;-72
2023/01/10 02:32:15;;;;;;;;;3.00;2.33;;;;;7.83;65.56;101590.00;5034550;28;45338;-72
2023/01/10 02:35:05;;;;;;;;;2.00;2.00;;;;;7.83;65.78;101599.75;5057771;28;45333;-72
2023/01/10 02:37:33;;;;;;;;;4.33;3.33;;;;;7.80;65.97;101605.22;5057735;28;45240;-72
2023/01/10 02:40:10;;;;;;;;;6.00;1.00;;;;;7.46;65.94;101557.25;5057414;28;45598;-70
2023/01/10 02:42:41;;;;;;;;;2.00;2.00;;;;;7.78;66.35;101609.78;5057331;28;45535;-71
2023/01/10 02:45:16;;;;;;;;;1.67;1.67;;;;;6.89;66.06;101475.59;5057309;28;45272;-72
2023/01/10 02:47:41;;;;;;;;;2.67;2.33;;;;;7.40;66.60;101570.88;5039570;28;45312;-73
2023/01/10 02:50:29;;;;;;;;;8.00;2.67;;;;;7.72;66.42;101613.69;5057098;28;45587;-72
2023/01/10 02:53:01;;;;;;;;;4.00;3.00;;;;;7.69;66.76;101621.84;5057267;28;45483;-71
2023/01/10 02:55:51;;;;;;;;;5.67;3.00;;;;;6.88;66.28;101505.63;5057284;28;45290;-73
2023/01/10 02:58:26;;;;;;;;;3.00;2.00;;;;;7.66;66.82;101634.44;5046325;28;45356;-71
2023/01/10 03:01:18;;;;;;;;;2.67;1.67;;;;;7.44;66.39;101606.78;5058348;28;45861;-72
2023/01/10 03:03:55;;;;;;;;;5.00;2.33;;;;;7.69;66.37;101636.88;5056458;28;45234;-73
2023/01/10 03:06:40;;;;;;;;;5.67;2.67;;;;;6.81;66.40;101482.31;5057340;28;45340;-72
2023/01/10 03:09:12;;;;;;;;;2.00;1.00;;;;;7.32;66.66;101573.22;5057476;28;45451;-72
2023/01/10 03:11:41;;;;;;;;;3.33;2.00;;;;;7.22;66.58;101550.97;5039083;28;48474;-72
2023/01/10 03:14:21;;;;;;;;;2.33;2.00;;;;;7.49;66.91;101602.03;5038904;28;45626;-70
2023/01/10 03:17:03;;;;;;;;;2.00;2.00;;;;;7.48;67.15;101616.22;5057084;28;45471;-71
2023/01/10 03:19:34;;;;;;;;;4.00;2.33;;;;;7.45;67.29;101616.41;5057109;28;45271;-71
2023/01/10 03:22:03;;;;;;;;;4.33;2.00;;;;;7.07;67.34;101552.84;5056894;28;45763;-71
2023/01/10 03:24:35;;;;;;;;;2.00;1.67;;;;;7.36;67.50;101600.28;5056628;28;45252;-72
2023/01/10 03:27:09;;;;;;;;;4.33;3.00;;;;;7.16;67.73;101575.16;5056856;28;45533;-72
2023/01/10 03:29:47;;;;;;;;;3.00;2.00;;;;;7.41;67.41;101630.81;5057173;28;45459;-72
2023/01/10 03:32:16;;;;;;;;;1.00;1.00;;;;;7.00;68.07;101546.25;5056690;28;46955;-71
2023/01/10 03:34:43;;;;;;;;;3.00;3.00;;;;;7.17;67.52;101587.44;5038538;28;45525;-71
2023/01/10 03:37:11;;;;;;;;;7.00;4.67;;;;;7.43;67.58;101638.63;5038552;28;45312;-72
2023/01/10 03:40:03;;;;;;;;;6.67;3.00;;;;;6.89;67.31;101552.25;5056816;28;45308;-71
2023/01/10 03:45:32;;;;;;;;;3.33;2.67;;;;;7.56;67.24;101650.94;5056772;28;45534;-69
2023/01/10 03:48:01;;;;;;;;;3.00;2.00;;;;;7.47;67.25;101618.97;5058742;28;45418;-71
2023/01/10 03:50:28;;;;;;;;;1.00;1.00;;;;;7.18;67.27;101591.78;5061000;28;45498;-70
2023/01/10 03:52:56;;;;;;;;;4.67;3.00;;;;;7.42;67.30;101637.78;5058540;28;48508;-72
2023/01/10 03:55:25;;;;;;;;;3.33;2.33;;;;;7.06;67.63;101574.94;5060054;28;45225;-72
2023/01/10 03:57:50;;;;;;;;;2.00;2.00;;;;;7.53;66.98;101660.88;5059966;28;45399;-71
2023/01/10 04:00:16;;;;;;;;;4.67;3.00;;;;;7.25;67.32;101638.06;5042295;28;45560;-71
2023/01/10 04:02:43;;;;;;;;;5.00;4.33;;;;;7.55;67.59;101672.19;5060524;28;45875;-71
2023/01/10 04:05:08;;;;;;;;;3.33;1.00;;;;;7.54;67.25;101673.16;5060049;28;45483;-72
2023/01/10 04:07:33;;;;;;;;;5.67;2.00;;;;;7.21;67.55;101608.31;5060218;28;45564;-70
2023/01/10 04:09:59;;;;;;;;;5.00;2.67;;;;;7.53;67.93;101660.88;5060271;28;45319;-72
2023/01/10 04:12:24;;;;;;;;;3.33;2.33;;;;;7.13;68.03;101610.59;5059837;28;45758;-71
2023/01/10 04:14:50;;;;;;;;;7.00;4.00;;;;;7.52;67.77;101669.75;5041907;28;45604;-71
2023/01/10 04:17:16;;;;;;;;;5.00;2.00;;;;;7.55;67.57;101662.47;5059568;28;45154;-71
2023/01/10 04:19:42;;;;;;;;;2.67;2.00;;;;;7.39;67.98;101643.25;5060043;28;45177;-72
2023/01/10 04:22:08;;;;;;;;;4.00;3.00;;;;;7.49;67.80;101660.25;5059433;28;46572;-73
2023/01/10 04:24:34;;;;;;;;;2.33;2.33;;;;;7.34;68.12;101634.78;5059361;28;45440;-72
2023/01/10 04:26:59;;;;;;;;;7.33;3.33;;;;;7.38;68.00;101635.44;5059706;28;45317;-71
2023/01/10 04:29:25;;;;;;;;;2.33;2.33;;;;;7.54;67.85;101658.13;5059666;28;45548;-71
2023/01/10 04:31:51;;;;;;;;;5.33;4.33;;;;;7.23;67.97;101610.84;5041256;28;47612;-70
2023/01/10 04:34:19;;;;;;;;;3.33;3.33;;;;;7.42;67.98;101664.25;5059434;28;45353;-71
2023/01/10 04:36:45;;;;;;;;;2.67;2.67;;;;;7.36;67.88;101632.88;5041419;28;45527;-71
2023/01/10 04:39:11;;;;;;;;;2.00;1.00;;;;;7.55;67.93;101680.13;5058122;28;45236;-71
2023/01/10 04:41:36;;;;;;;;;5.00;2.67;;;;;7.53;68.18;101684.69;5059166;28;46292;-69
2023/01/10 04:44:02;;;;;;;;;5.33;2.00;;;;;7.00;68.16;101594.69;5059168;28;45378;-73
2023/01/10 04:46:28;;;;;;;;;5.00;3.00;;;;;7.47;68.31;101685.94;5059371;28;45204;-71
2023/01/10 04:48:53;;;;;;;;;4.67;4.00;;;;;7.46;68.32;101686.91;5059151;28;46279;-72
2023/01/10 04:51:18;;;;;;;;;5.67;2.00;;;;;7.47;68.50;101672.72;5059079;28;45941;-72
2023/01/10 04:53:43;;;;;;;;;3.33;2.00;;;;;7.46;68.66;101676.31;5059118;28;45442;-72
2023/01/10 04:56:16;;;;;;;;;8.33;4.33;;;;;7.44;68.46;101677.38;5059089;28;45443;-71
2023/01/10 04:58:41;;;;;;;;;7.00;3.00;;;;;6.70;68.63;101549.13;5059393;28;45428;-70
2023/01/10 05:01:11;;;;;;;;;2.00;2.00;;;;;7.44;68.01;101683.50;5058674;28;46403;-72
2023/01/10 05:03:36;;;;;;;;;4.33;1.00;;;;;7.37;68.15;101655.75;5059169;28;45257;-72
2023/01/10 05:06:02;;;;;;;;;4.00;3.00;;;;;7.54;68.46;101668.72;5058906;28;45363;-71
2023/01/10 05:08:28;;;;;;;;;3.33;2.00;;;;;7.39;68.04;101637.13;5059257;28;45246;-70
2023/01/10 05:10:53;;;;;;;;;6.00;4.00;;;;;7.57;68.42;101679.09;5058889;28;46231;-70
2023/01/10 05:13:18;;;;;;;;;5.67;5.67;;;;;7.59;68.12;101676.34;5058582;28;45220;-71
2023/01/10 05:15:44;;;;;;;;;4.67;3.00;;;;;7.17;67.92;101598.03;5058330;28;45213;-70
2023/01/10 05:18:09;;;;;;;;;2.33;2.33;;;;;6.96;68.27;101553.53;5059193;28;45252;-73
2023/01/10 05:20:34;;;;;;;;;2.67;2.67;;;;;7.25;67.98;101603.66;5059054;28;45599;-73
2023/01/10 05:23:00;;;;;;;;;5.00;3.33;;;;;7.58;68.24;101667.56;5059335;28;45330;-72
2023/01/10 05:25:25;;;;;;;;;4.00;3.00;;;;;7.63;68.59;101665.47;5042085;28;45284;-71
2023/01/10 05:27:50;;;;;;;;;5.67;3.67;;;;;7.69;68.60;101660.72;5059227;28;52036;-71
2023/01/10 05:30:16;;;;;;;;;4.00;4.00;;;;;7.51;68.18;101629.22;5059018;28;45167;-72
2023/01/10 05:32:41;;;;;;;;;4.00;4.00;;;;;7.69;68.46;101677.44;5058571;28;45489;-72
2023/01/10 05:35:07;;;;;;;;;1.00;1.00;;;;;7.52;68.00;101643.31;5057055;28;45761;-72
2023/01/10 05:37:32;;;;;;;;;5.00;2.00;;;;;7.68;68.07;101677.53;5059316;28;45364;-71
2023/01/10 05:39:57;;;;;;;;;1.67;1.33;;;;;7.63;68.05;101651.38;5058736;28;46622;-72
2023/01/10 05:42:23;;;;;;;;;2.33;2.33;;;;;7.58;68.65;101656.97;5059145;28;45336;-72
2023/01/10 05:44:48;;;;;;;;;4.00;2.00;;;;;7.36;68.16;101619.66;5059678;28;46383;-71
2023/01/10 05:47:13;;;;;;;;;10.33;3.00;;;;;7.67;68.45;101679.34;5040822;28;45268;-71
2023/01/10 05:49:39;;;;;;;;;6.00;3.00;;;;;7.69;67.80;101666.84;5058022;28;45888;-72
2023/01/10 05:52:04;;;;;;;;;3.33;3.33;;;;;7.72;68.40;101657.84;5058222;28;47505;-72
2023/01/10 05:54:29;;;;;;;;;3.00;2.00;;;;;6.90;67.63;101519.59;5058357;28;45408;-71
2023/01/10 05:56:55;;;;;;;;;3.67;2.67;;;;;7.71;68.30;101664.09;5057105;28;45673;-72
2023/01/10 05:59:21;;;;;;;;;4.33;4.00;;;;;7.36;68.19;101595.84;5056765;28;46715;-72
2023/01/10 06:01:46;;;;;;;;;3.67;2.00;;;;;7.13;67.84;101556.88;5057956;28;45447;-73
2023/01/10 06:04:11;;;;;;;;;2.00;1.67;;;;;7.74;68.16;101648.00;5058131;28;45269;-72
2023/01/10 06:06:37;;;;;;;;;8.33;4.00;;;;;7.74;67.80;101663.88;5056856;28;45496;-72
2023/01/10 06:09:02;;;;;;;;;3.00;3.00;;;;;6.81;67.88;101504.34;5057831;28;46346;-70
2023/01/10 06:11:28;;;;;;;;;4.00;4.00;;;;;7.62;68.25;101645.25;5039719;28;45280;-73
2023/01/10 06:13:56;;;;;;;;;4.00;4.00;;;;;7.72;68.08;101649.91;5057670;28;45466;-71
2023/01/10 06:16:21;;;;;;;;;4.33;3.00;;;;;7.82;68.12;101658.94;5057731;28;45538;-72
2023/01/10 06:18:47;;;;;;;;;4.67;3.67;;;;;7.84;67.76;101657.88;5058005;28;45894;-70
2023/01/10 06:21:12;;;;;;;;;4.33;4.00;;;;;7.79;68.19;101657.31;5059014;28;45187;-71
2023/01/10 06:23:38;;;;;;;;;6.67;3.33;;;;;7.23;68.12;101557.97;5059553;28;45283;-72
2023/01/10 06:26:04;;;;;;;;;5.33;4.00;;;;;7.52;68.29;101617.69;5058455;28;45267;-72
2023/01/10 06:28:29;;;;;;;;;3.67;3.33;;;;;7.30;68.53;101585.69;5057746;28;45807;-72
2023/01/10 06:30:54;;;;;;;;;4.33;3.00;;;;;7.40;68.38;101602.63;5056136;28;45407;-72
2023/01/10 06:33:20;;;;;;;;;4.33;4.33;;;;;7.71;68.39;101658.81;5040076;28;45548;-73
2023/01/10 06:35:45;;;;;;;;;7.67;5.33;;;;;7.70;68.50;101654.47;5039647;28;45281;-72
2023/01/10 06:38:11;;;;;;;;;9.33;6.33;;;;;7.67;67.98;101649.38;5039191;28;47109;-74
2023/01/10 06:40:36;;;;;;;;;4.67;4.67;;;;;7.17;68.46;101579.50;5056929;28;45542;-72
2023/01/10 06:43:02;;;;;;;;;4.67;4.67;;;;;7.54;68.72;101671.34;5052651;28;45463;-74
2023/01/10 06:45:27;;;;;;;;;6.00;3.67;;;;;7.59;69.10;101665.75;5050506;28;45446;-73
2023/01/10 06:47:52;;;;;;;;;6.33;4.67;;;;;7.68;68.58;101674.91;5038345;28;45993;-73
2023/01/10 06:50:18;;;;;;;;;6.33;5.00;;;;;7.53;69.31;101661.72;5046174;28;45349;-72
2023/01/10 06:52:43;;;;;;;;;7.67;6.33;;;;;7.56;69.17;101693.28;5057343;28;45383;-73
2023/01/10 06:55:09;;;;;;;;;6.67;5.67;;;;;7.21;68.76;101618.06;5045881;28;45499;-75
2023/01/10 06:57:34;;;;;;;;;4.67;4.67;;;;;7.45;69.05;101661.41;5024183;28;46779;-73
2023/01/10 07:00:07;;;;;;;;;9.33;6.00;;;;;7.63;69.02;101694.59;5042055;28;45392;-75
2023/01/10 07:02:33;;;;;;;;;5.00;3.00;;;;;5.20;68.41;101285.97;5037153;28;45349;-74
2023/01/10 07:04:58;;;;;;;;;6.00;6.00;;;;;7.30;69.12;101609.50;5031258;28;45317;-75
2023/01/10 07:07:23;;;;;;;;;7.00;4.00;;;;;7.69;69.24;101671.28;5056620;28;54969;-75
2023/01/10 07:09:48;;;;;;;;;6.67;4.67;;;;;7.49;69.26;101622.34;5050187;28;59642;-74
2023/01/10 07:12:14;;;;;;;;;9.67;7.33;;;;;7.41;68.67;101614.94;5021018;28;45446;-74
2023/01/10 07:14:39;;;;;;;;;5.33;3.00;;;;;7.37;69.03;101621.34;5036872;28;46404;-76
2023/01/10 07:17:04;;;;;;;;;7.00;6.33;;;;;7.43;69.38;101626.25;5038523;28;45951;-72
2023/01/10 07:19:30;;;;;;;;;6.33;4.00;;;;;7.66;69.07;101655.63;5037194;28;45424;-72
2023/01/10 07:21:55;;;;;;;;;4.67;3.33;;;;;7.37;69.24;101612.56;5037422;28;45377;-78
2023/01/10 07:24:21;;;;;;;;;9.67;7.33;;;;;7.22;69.27;101583.56;5042041;28;45455;-74
2023/01/10 07:26:46;;;;;;;;;3.67;3.67;;;;;7.55;69.14;101649.25;5052777;28;45972;-75
2023/01/10 07:29:11;;;;;;;;;15.00;10.00;;;;;7.61;68.93;101638.25;5047373;28;45428;-72
2023/01/10 07:31:37;;;;;;;;;8.33;7.33;;;;;7.17;69.33;101563.66;5053262;28;45636;-75
2023/01/10 07:34:02;;;;;;;;;9.67;5.67;;;;;6.92;68.79;101528.25;5036957;28;45459;-75
2023/01/10 07:36:28;;;;;;;;;5.67;5.00;;;;;7.44;69.18;101619.16;5048513;28;45796;-75
2023/01/10 07:38:53;;;;;;;;;2.00;1.00;;;;;7.67;68.90;101646.72;5060839;28;45198;-74
2023/01/10 07:41:19;;;;;;;;;6.33;4.00;;;;;7.26;69.06;101608.00;5042627;28;45224;-74
2023/01/10 07:43:44;;;;;;;;;6.00;4.67;;;;;7.61;69.25;101648.84;5052479;28;45222;-75
2023/01/10 07:46:11;;;;;;;;;5.00;3.67;;;;;7.44;69.19;101625.31;5022187;28;48437;-75
2023/01/10 07:48:37;;;;;;;;;9.67;6.00;;;;;7.28;69.71;101608.75;5022254;28;45453;-74
2023/01/10 07:51:04;;;;;;;;;6.00;3.00;;;;;6.58;69.28;101470.63;5051033;28;45510;-72
2023/01/10 07:53:30;;;;;;;;;5.00;4.67;;;;;7.20;69.40;101592.53;5024232;28;45190;-70
2023/01/10 07:56:00;;;;;;;;;6.00;4.67;;;;;7.63;69.84;101654.03;5039900;28;46729;-76
2023/01/10 07:58:26;;;;;;;;;13.00;8.33;;;;;7.62;69.85;101655.00;5036377;28;45546;-80
2023/01/10 08:00:51;;;;;;;;;6.33;5.00;;;;;7.58;69.23;101638.44;5055270;28;45295;-74
2023/01/10 08:03:17;;;;;;;;;4.00;4.00;;;;;7.24;69.34;101583.47;5025129;28;45397;-75
2023/01/10 08:05:43;;;;;;;;;7.00;6.00;;;;;7.10;69.63;101557.91;5038146;28;46142;-77
2023/01/10 08:08:10;;;;;;;;;7.33;7.33;;;;;7.29;69.59;101597.22;5021705;28;45316;-76
2023/01/10 08:10:37;;;;;;;;;6.00;5.00;;;;;7.72;69.33;101665.78;5057194;28;45449;-77
2023/01/10 08:13:03;;;;;;;;;6.33;5.33;;;;;7.73;69.41;101651.59;5040785;28;45578;-77
2023/01/10 08:15:29;;;;;;;;;9.33;5.33;;;;;7.80;69.27;101658.16;5050156;28;46319;-75
2023/01/10 08:18:00;;;;;;;;;6.00;5.00;;;;;7.74;69.23;101650.66;5052785;28;45330;-75
2023/01/10 08:20:26;;;;;;;;;7.00;6.00;;;;;7.58;68.74;101627.00;5040642;28;45384;-76
2023/01/10 08:22:51;;;;;;;;;6.00;5.67;;;;;7.77;68.68;101653.09;5039582;28;45362;-78
2023/01/10 08:25:17;;;;;;;;;8.00;6.00;;;;;7.75;69.35;101655.00;5021511;28;48910;-77
2023/01/10 08:27:42;;;;;;;;;9.33;5.00;;;;;7.53;69.15;101619.38;5020613;28;45396;-75
2023/01/10 08:30:08;;;;;;;;;6.00;5.33;;;;;7.80;69.29;101666.09;5038173;28;45424;-75
2023/01/10 08:32:34;;;;;;;;;8.33;6.67;;;;;7.81;68.73;101665.19;5021394;28;45683;-74
2023/01/10 08:34:59;;;;;;;;;10.67;6.33;;;;;7.80;69.16;101679.34;5038559;28;46134;-76
2023/01/10 08:37:24;;;;;;;;;13.00;10.00;;;;;7.51;69.25;101616.00;5039429;28;46298;-75
2023/01/10 08:39:50;;;;;;;;;15.00;10.67;;;;;7.53;69.49;101603.50;5033793;28;45318;-75
2023/01/10 08:42:15;;;;;;;;;7.00;7.00;;;;;7.55;69.04;101604.25;5041626;28;45379;-78
2023/01/10 08:44:41;;;;;;;;;13.33;10.67;;;;;7.82;69.23;101649.19;5046595;28;48242;-75
2023/01/10 08:47:06;;;;;;;;;11.67;7.67;;;;;7.52;68.73;101587.75;5040202;28;45194;-76
2023/01/10 08:49:32;;;;;;;;;11.00;6.00;;;;;7.61;69.09;101587.13;5042576;28;45369;-77
2023/01/10 08:51:57;;;;;;;;;11.67;10.67;;;;;7.66;69.29;101592.09;5041390;28;45297;-75
2023/01/10 08:54:23;;;;;;;;;10.00;8.33;;;;;6.86;68.90;101459.94;5047045;28;46938;-75
2023/01/10 08:56:48;;;;;;;;;9.00;5.33;;;;;7.89;69.28;101636.38;5053175;28;45399;-76
2023/01/10 08:59:14;;;;;;;;;10.00;6.67;;;;;7.83;69.12;101628.88;5057349;28;45337;-75
2023/01/10 09:01:40;;;;;;;;;6.00;6.00;;;;;7.70;69.63;101620.91;5034388;28;45565;-74
2023/01/10 09:04:05;;;;;;;;;11.00;7.00;;;;;7.33;69.82;101565.16;5042608;28;45389;-74
2023/01/10 09:06:30;;;;;;;;;8.33;8.33;;;;;7.89;70.44;101662.84;5046009;28;45317;-74
2023/01/10 09:08:55;;;;;;;;;6.00;5.00;;;;;7.28;70.62;101545.28;5048197;28;45289;-73
2023/01/10 09:11:21;;;;;;;;;6.33;6.33;;;;;7.81;70.71;101638.72;5041496;28;56466;-77
2023/01/10 09:13:49;;;;;;;;;6.00;6.00;;;;;7.08;71.64;101501.66;5054152;28;46264;-78
2023/01/10 09:16:15;;;;;;;;;10.00;5.00;;;;;6.56;71.04;101404.69;5058534;28;45424;-76
2023/01/10 09:18:41;;;;;;;;;5.00;4.00;;;;;7.67;71.25;101588.50;5058413;28;45395;-78
2023/01/10 09:21:06;;;;;;;;;8.67;5.00;;;;;7.61;71.20;101579.19;5047413;28;45542;-76
2023/01/10 09:23:31;;;;;;;;;10.00;6.00;;;;;7.62;71.69;101584.38;5042442;28;49662;-75
2023/01/10 09:25:59;;;;;;;;;8.33;6.33;;;;;8.07;72.13;101648.38;5051766;28;45447;-76
2023/01/10 09:28:25;;;;;;;;;9.67;9.33;;;;;8.06;72.37;101644.03;5030123;28;45215;-77
2023/01/10 09:30:50;;;;;;;;;12.67;9.00;;;;;7.70;72.24;101583.00;5022650;28;45441;-77
2023/01/10 09:33:16;;;;;;;;;6.67;5.67;;;;;7.78;72.43;101583.31;5021305;28;47536;-77
2023/01/10 09:35:42;;;;;;;;;15.00;7.00;;;;;7.62;72.78;101563.22;5037982;28;45454;-77
2023/01/10 09:38:17;;;;;;;;;16.67;10.00;;;;;8.09;72.75;101622.63;5058637;28;45345;-76
2023/01/10 09:40:56;;;;;;;;;11.33;7.33;;;;;8.17;72.59;101630.84;5028894;28;45558;-77
2023/01/10 09:43:25;;;;;;;;;8.33;7.00;;;;;8.20;72.73;101630.66;5025654;28;48954;-77
2023/01/10 09:45:59;;;;;;;;;9.33;6.67;;;;;8.23;72.78;101619.00;5036839;28;45493;-78
2023/01/10 09:48:55;;;;;;;;;5.67;5.67;;;;;8.25;72.69;101619.75;5057574;28;45497;-76
2023/01/10 09:51:31;;;;;;;;;14.00;12.00;;;;;8.30;73.09;101619.41;5040472;28;45495;-75
2023/01/10 09:54:00;;;;;;;;;10.67;7.33;;;;;8.15;72.79;101585.09;5039556;28;47353;-77
2023/01/10 09:56:27;;;;;;;;;7.33;7.33;;;;;7.54;73.27;101494.06;5056350;28;45395;-78
2023/01/10 09:58:54;;;;;;;;;12.33;8.00;;;;;8.07;73.18;101587.44;5053235;28;45527;-77
2023/01/10 10:01:24;;;;;;;;;10.33;8.33;;;;;7.86;73.87;101568.59;5038929;28;45583;-76
2023/01/10 10:04:02;;;;;;;;;10.33;7.67;;;;;7.97;74.22;101574.94;5057833;28;46696;-77
2023/01/10 10:06:28;;;;;;;;;5.00;4.00;;;;;8.11;74.18;101593.38;5037537;28;45361;-76
2023/01/10 10:08:55;;;;;;;;;8.67;5.67;;;;;8.29;74.21;101610.63;5046832;28;45376;-74
2023/01/10 10:11:26;;;;;;;;;8.33;7.00;;;;;8.33;74.27;101613.91;5056039;28;45554;-75
2023/01/10 10:14:04;;;;;;;;;6.67;5.00;;;;;7.81;74.12;101536.31;5041187;28;46533;-75
2023/01/10 10:17:03;;;;;;;;;11.67;7.67;;;;;8.30;74.21;101624.72;5049970;28;45526;-75
2023/01/10 10:19:37;;;;;;;;;11.67;9.33;;;;;8.32;74.61;101628.09;5024337;28;45487;-75
2023/01/10 10:22:12;;;;;;;;;6.00;6.00;;;;;8.35;74.15;101623.47;5043777;28;45534;-76
2023/01/10 10:25:02;;;;;;;;;6.33;4.67;;;;;8.36;74.58;101619.00;5019342;28;46358;-77
2023/01/10 10:27:44;;;;;;;;;10.33;6.00;;;;;7.85;74.40;101529.00;5019621;28;45481;-74
2023/01/10 10:30:36;;;;;;;;;7.00;6.00;;;;;8.41;74.80;101611.56;5028328;28;45348;-76
2023/01/10 10:33:10;;;;;;;;;9.33;7.00;;;;;8.29;74.57;101570.03;5035292;28;45483;-76
2023/01/10 10:35:40;;;;;;;;;5.33;3.00;;;;;8.35;74.89;101586.38;5040817;28;45491;-77
2023/01/10 10:38:15;;;;;;;;;6.67;6.67;;;;;7.84;74.92;101488.44;5030064;28;45508;-78
2023/01/10 10:40:43;;;;;;;;;10.00;8.00;;;;;8.42;75.10;101570.91;5049352;28;45337;-74
2023/01/10 10:43:23;;;;;;;;;14.33;14.33;;;;;8.43;74.95;101565.50;5039605;28;45567;-73
2023/01/10 10:45:54;;;;;;;;;5.67;5.67;;;;;8.47;74.83;101561.66;5041092;28;46040;-75
2023/01/10 10:48:29;;;;;;;;;11.00;7.00;;;;;7.49;75.21;101394.81;5036669;28;46315;-75
2023/01/10 10:50:59;;;;;;;;;9.00;7.00;;;;;8.48;75.27;101555.41;5038155;28;45295;-76
2023/01/10 10:53:24;;;;;;;;;6.00;5.00;;;;;7.33;74.95;101352.72;5024141;28;45618;-75
2023/01/10 10:55:52;;;;;;;;;7.00;5.00;;;;;7.73;74.98;101414.22;5037160;28;46471;-76
2023/01/10 10:58:17;;;;;;;;;14.00;13.00;;;;;8.35;75.19;101496.28;5049523;28;45559;-72
2023/01/10 11:00:43;;;;;;;;;13.00;7.33;;;;;8.03;74.42;101434.19;5041650;28;45625;-73
2023/01/10 11:03:33;;;;;;;;;9.67;7.67;;;;;8.66;74.89;101531.16;5050114;28;45492;-76
2023/01/10 11:06:00;;;;;;;;;7.33;7.33;;;;;8.27;75.12;101480.09;5036849;28;45339;-75
2023/01/10 11:08:27;;;;;;;;;6.00;4.67;;;;;8.17;75.04;101456.03;5036352;28;45601;-73
2023/01/10 11:10:55;;;;;;;;;10.00;8.33;;;;;7.72;74.82;101364.06;5032255;28;45249;-74
2023/01/10 11:13:36;;;;;;;;;9.00;7.00;;;;;7.76;74.89;101371.66;5050880;28;45418;-77
2023/01/10 11:16:04;;;;;;;;;9.33;7.33;;;;;7.82;75.26;101391.56;5020960;28;46931;-75
2023/01/10 11:18:30;;;;;;;;;6.00;5.00;;;;;8.56;74.95;101499.19;5080270;27;45510;-75
2023/01/10 11:21:00;;;;;;;;;6.67;6.67;;;;;7.60;75.60;101339.31;5066534;27;45370;-78
2023/01/10 11:23:54;;;;;;;;;8.00;7.00;;;;;8.58;75.54;101491.94;5069231;28;45532;-76
2023/01/10 11:26:35;;;;;;;;;13.33;7.67;;;;;8.50;76.28;101489.88;5075729;28;48187;-76
2023/01/10 11:29:03;;;;;;;;;10.00;8.67;;;;;8.49;76.45;101476.75;5093106;27;45328;-75
2023/01/10 11:31:29;;;;;;;;;6.00;6.00;;;;;8.07;77.03;101396.78;5076721;28;45529;-74
2023/01/10 11:33:56;;;;;;;;;8.00;6.67;;;;;8.07;77.37;101402.06;5077565;28;45402;-77
2023/01/10 11:36:21;;;;;;;;;10.33;6.67;;;;;8.44;77.72;101473.59;5094542;27;48635;-76
2023/01/10 11:38:59;;;;;;;;;7.67;7.67;;;;;8.46;78.09;101474.31;5092990;27;45504;-76
2023/01/10 11:41:30;;;;;;;;;7.00;5.33;;;;;8.54;78.27;101442.78;5092790;27;45287;-75
2023/01/10 11:44:34;;;;;;;;;5.67;4.67;;;;;8.42;78.25;101409.28;5078256;28;45344;-76
2023/01/10 11:47:04;;;;;;;;;12.33;10.67;;;;;7.42;78.21;101246.25;5079481;27;46786;-75
2023/01/10 11:49:36;;;;;;;;;6.00;4.33;;;;;8.59;78.29;101430.03;5095111;27;45470;-75